Time;durP1;ratioP1;P1;durP2;ratioP2;P2;SDS_P1;SDS_P2;PMS_P1;PMS_P2;Temp;Humidity;BMP_temperature;BMP_pressure;BME280_temperature;BME280_humidity;BME280_pressure;Samples;Min_cycle;Max_cycle;Signal;HPM_P1;HPM_P2
2022/06/18 00:00:57;;;;;;;7.45;3.50;;;19.80;99.90;;;;;;5029320;28;20045;-72
2022/06/18 00:03:24;;;;;;;10.70;4.18;;;19.80;99.90;;;;;;5029675;28;20097;-73
2022/06/18 00:05:54;;;;;;;6.05;3.58;;;19.80;99.90;;;;;;5029636;28;20048;-75
2022/06/18 00:08:26;;;;;;;5.88;3.58;;;19.80;99.90;;;;;;5029683;28;20551;-73
2022/06/18 00:13:41;;;;;;;8.80;3.33;;;19.80;99.90;;;;;;5030962;28;20116;-73
2022/06/18 00:16:13;;;;;;;4.32;3.75;;;19.80;99.90;;;;;;5013067;28;20037;-73
2022/06/18 00:18:39;;;;;;;4.05;3.38;;;19.80;99.90;;;;;;5029506;28;20041;-73
2022/06/18 00:21:06;;;;;;;7.30;4.25;;;19.80;99.90;;;;;;5033212;28;20045;-73
2022/06/18 00:23:33;;;;;;;5.60;3.03;;;19.70;99.90;;;;;;5045015;28;20519;-73
2022/06/18 00:25:58;;;;;;;6.95;3.50;;;19.70;99.90;;;;;;5039206;28;20048;-72
2022/06/18 00:28:28;;;;;;;4.88;3.60;;;19.70;99.90;;;;;;5030811;28;20038;-73
2022/06/18 00:30:54;;;;;;;5.82;3.85;;;19.70;99.90;;;;;;5030486;28;20404;-73
2022/06/18 00:33:20;;;;;;;5.25;4.10;;;19.70;99.90;;;;;;5029516;28;20390;-73
2022/06/18 00:35:47;;;;;;;8.23;4.03;;;19.60;99.90;;;;;;5033745;28;20492;-73
2022/06/18 00:38:35;;;;;;;7.85;3.88;;;19.60;99.90;;;;;;5033118;28;20044;-73
2022/06/18 00:41:01;;;;;;;10.27;4.18;;;19.60;99.90;;;;;;5016192;28;20045;-73
2022/06/18 00:43:36;;;;;;;11.38;4.30;;;19.60;99.90;;;;;;5032882;28;20487;-73
2022/06/18 00:46:18;;;;;;;6.80;3.80;;;19.50;99.90;;;;;;5032717;28;20508;-73
2022/06/18 00:48:57;;;;;;;4.72;3.88;;;19.50;99.90;;;;;;5032938;28;20563;-75
2022/06/18 00:51:34;;;;;;;10.48;3.85;;;19.40;99.90;;;;;;5032395;28;20052;-73
2022/06/18 00:54:07;;;;;;;14.95;3.80;;;19.40;99.90;;;;;;5032675;28;20045;-73
2022/06/18 00:56:44;;;;;;;6.55;4.47;;;19.40;99.90;;;;;;5033914;28;20509;-73
2022/06/18 00:59:23;;;;;;;8.48;4.30;;;19.40;99.90;;;;;;5032504;28;20073;-75
2022/06/18 01:01:50;;;;;;;6.72;4.53;;;19.30;99.90;;;;;;5015818;28;20046;-73
2022/06/18 01:04:25;;;;;;;5.25;4.13;;;19.30;99.90;;;;;;5032543;28;20053;-73
2022/06/18 01:07:04;;;;;;;4.68;3.88;;;19.40;99.90;;;;;;5032529;28;20049;-73
2022/06/18 01:09:32;;;;;;;9.52;4.80;;;19.40;99.90;;;;;;5032188;28;20091;-75
2022/06/18 01:11:58;;;;;;;6.80;5.05;;;19.40;99.90;;;;;;5032616;28;20053;-73
2022/06/18 01:14:26;;;;;;;8.65;4.50;;;19.40;99.90;;;;;;5032369;28;20055;-72
2022/06/18 01:16:56;;;;;;;9.18;4.57;;;19.40;99.90;;;;;;5032608;28;20050;-72
2022/06/18 01:19:47;;;;;;;9.25;5.45;;;19.40;99.90;;;;;;5032267;28;20045;-73
2022/06/18 01:22:39;;;;;;;8.00;5.38;;;19.40;99.90;;;;;;5031435;28;20056;-73
2022/06/18 01:25:07;;;;;;;8.40;4.88;;;19.40;99.90;;;;;;5031991;28;20049;-73
2022/06/18 01:27:34;;;;;;;6.90;5.05;;;19.40;99.90;;;;;;5031903;28;20698;-73
2022/06/18 01:29:59;;;;;;;8.35;5.50;;;19.40;99.90;;;;;;5033008;28;20038;-73
2022/06/18 01:32:25;;;;;;;10.65;5.90;;;19.40;99.90;;;;;;5015377;28;20037;-73
2022/06/18 01:34:52;;;;;;;9.15;4.82;;;19.40;99.90;;;;;;5031647;28;20451;-75
2022/06/18 01:37:18;;;;;;;8.32;5.22;;;19.40;99.90;;;;;;5032057;28;20041;-73
2022/06/18 01:39:46;;;;;;;6.55;5.38;;;19.30;99.90;;;;;;5031455;28;20488;-73
2022/06/18 01:42:28;;;;;;;9.63;5.30;;;19.30;99.90;;;;;;5031405;28;20497;-72
2022/06/18 01:45:11;;;;;;;18.00;5.78;;;19.30;99.90;;;;;;5031455;28;20445;-73
2022/06/18 01:47:42;;;;;;;8.07;5.47;;;19.20;99.90;;;;;;5031314;28;20108;-73
2022/06/18 01:50:17;;;;;;;9.02;5.70;;;19.10;99.90;;;;;;5031106;28;20056;-73
2022/06/18 01:52:47;;;;;;;8.88;5.65;;;19.10;99.90;;;;;;5032958;28;20118;-73
2022/06/18 01:55:21;;;;;;;7.43;5.70;;;19.10;99.90;;;;;;5031392;28;20459;-73
2022/06/18 01:57:55;;;;;;;9.43;5.47;;;19.00;99.90;;;;;;5031292;28;20121;-73
2022/06/18 02:00:25;;;;;;;10.80;5.80;;;19.00;99.90;;;;;;5030936;28;20421;-73
2022/06/18 02:02:51;;;;;;;6.95;6.00;;;19.00;99.90;;;;;;5031183;28;20049;-73
2022/06/18 02:05:17;;;;;;;13.02;6.28;;;19.00;99.90;;;;;;5031083;28;20037;-73
2022/06/18 02:07:44;;;;;;;13.48;5.72;;;18.90;99.90;;;;;;5031211;28;20049;-73
2022/06/18 02:10:25;;;;;;;10.73;6.15;;;18.90;99.90;;;;;;5031029;28;20127;-73
2022/06/18 02:12:52;;;;;;;12.25;7.18;;;18.90;99.90;;;;;;5031295;28;20033;-73
2022/06/18 02:15:45;;;;;;;14.60;6.18;;;18.80;99.90;;;;;;5030969;28;20049;-73
2022/06/18 02:18:15;;;;;;;11.93;5.85;;;18.80;99.90;;;;;;5012090;28;20057;-73
2022/06/18 02:20:53;;;;;;;11.95;6.85;;;18.80;99.90;;;;;;5030626;28;20053;-73
2022/06/18 02:23:20;;;;;;;9.80;6.65;;;18.80;99.90;;;;;;5030835;28;20045;-73
2022/06/18 02:25:46;;;;;;;11.45;6.43;;;18.70;99.90;;;;;;5030650;28;20053;-73
2022/06/18 02:28:22;;;;;;;9.35;6.40;;;18.70;99.90;;;;;;5030988;28;20033;-73
2022/06/18 02:30:48;;;;;;;9.45;6.38;;;18.70;99.90;;;;;;5030553;28;20124;-73
2022/06/18 02:33:43;;;;;;;9.73;6.38;;;18.70;99.90;;;;;;5030587;28;20049;-73
2022/06/18 02:36:14;;;;;;;9.60;6.03;;;18.70;99.90;;;;;;5030939;28;20127;-75
2022/06/18 02:38:40;;;;;;;12.05;7.10;;;18.60;99.90;;;;;;5030504;28;20076;-73
2022/06/18 02:41:05;;;;;;;7.03;5.80;;;18.60;99.90;;;;;;5030157;28;20504;-73
2022/06/18 02:43:33;;;;;;;10.45;7.00;;;18.60;99.90;;;;;;5030622;28;20084;-73
2022/06/18 02:45:59;;;;;;;9.68;6.35;;;18.50;99.90;;;;;;5030450;28;20042;-73
2022/06/18 02:48:28;;;;;;;10.23;7.43;;;18.60;99.90;;;;;;5030514;28;20029;-73
2022/06/18 02:50:57;;;;;;;10.05;6.72;;;18.50;99.90;;;;;;5013627;28;20073;-74
2022/06/18 02:53:24;;;;;;;10.52;7.45;;;18.50;99.90;;;;;;5031512;28;20095;-73
2022/06/18 02:55:55;;;;;;;11.45;7.22;;;18.60;99.90;;;;;;5030258;28;20052;-73
2022/06/18 02:58:27;;;;;;;16.92;7.78;;;18.50;99.90;;;;;;5029936;28;20053;-73
2022/06/18 03:01:17;;;;;;;10.63;7.50;;;18.50;99.90;;;;;;5029548;28;20160;-73
2022/06/18 03:03:47;;;;;;;10.88;7.57;;;18.50;99.90;;;;;;5030541;28;20493;-74
2022/06/18 03:06:15;;;;;;;10.35;7.07;;;18.40;99.90;;;;;;5030090;28;20045;-73
2022/06/18 03:08:41;;;;;;;9.98;6.68;;;18.40;99.90;;;;;;5029893;28;20049;-73
2022/06/18 03:13:54;;;;;;;10.88;7.25;;;18.40;99.90;;;;;;5013434;28;20556;-74
2022/06/18 03:16:22;;;;;;;9.15;6.78;;;18.40;99.90;;;;;;5029991;28;20053;-74
2022/06/18 03:18:50;;;;;;;12.68;7.93;;;18.40;99.90;;;;;;5030152;28;20053;-75
2022/06/18 03:21:21;;;;;;;11.55;7.95;;;18.40;99.90;;;;;;5029673;28;20602;-73
2022/06/18 03:23:47;;;;;;;10.93;7.75;;;18.40;99.90;;;;;;5029953;28;20049;-73
2022/06/18 03:26:14;;;;;;;14.63;7.50;;;18.40;99.90;;;;;;5029876;28;20041;-72
2022/06/18 03:28:40;;;;;;;12.70;7.97;;;18.40;99.90;;;;;;5029778;28;20049;-73
2022/06/18 03:31:06;;;;;;;11.13;8.10;;;18.40;99.90;;;;;;5029373;28;20041;-73
2022/06/18 03:33:32;;;;;;;9.98;8.13;;;18.40;99.90;;;;;;5030049;28;20025;-73
2022/06/18 03:35:58;;;;;;;15.38;8.55;;;18.40;99.90;;;;;;5013128;28;20078;-73
2022/06/18 03:38:24;;;;;;;13.27;8.48;;;18.40;99.90;;;;;;5030932;28;20037;-74
2022/06/18 03:40:52;;;;;;;11.73;7.80;;;18.40;99.90;;;;;;5029519;28;20152;-73
2022/06/18 03:43:19;;;;;;;11.30;8.05;;;18.50;99.90;;;;;;5029668;28;20484;-75
2022/06/18 03:45:47;;;;;;;15.40;8.23;;;18.50;99.90;;;;;;5029387;28;20534;-76
2022/06/18 03:48:31;;;;;;;14.45;9.32;;;18.50;99.90;;;;;;5029573;28;20041;-75
2022/06/18 03:50:56;;;;;;;14.05;8.60;;;18.50;99.90;;;;;;5029539;28;20042;-75
2022/06/18 03:53:23;;;;;;;15.85;8.90;;;18.50;99.90;;;;;;5029940;28;20072;-77
2022/06/18 03:55:49;;;;;;;13.30;9.13;;;18.50;99.90;;;;;;5031090;28;20045;-75
2022/06/18 03:58:15;;;;;;;12.27;9.00;;;18.60;99.90;;;;;;5029665;28;20045;-75
2022/06/18 04:00:41;;;;;;;16.58;10.02;;;18.60;99.90;;;;;;5029557;28;20046;-75
2022/06/18 04:03:07;;;;;;;13.00;8.85;;;18.60;99.90;;;;;;5031085;28;20045;-75
2022/06/18 04:05:36;;;;;;;13.18;8.73;;;18.70;99.90;;;;;;5013614;28;20563;-76
2022/06/18 04:08:01;;;;;;;16.90;10.32;;;18.70;99.90;;;;;;5029839;28;20041;-76
2022/06/18 04:10:27;;;;;;;14.05;9.63;;;18.70;99.90;;;;;;5032203;28;20057;-75
2022/06/18 04:12:53;;;;;;;14.85;9.82;;;18.70;99.90;;;;;;5033423;28;20049;-76
2022/06/18 04:15:19;;;;;;;12.57;9.77;;;18.80;99.90;;;;;;5033839;28;20037;-75
2022/06/18 04:17:45;;;;;;;12.70;9.43;;;18.80;99.90;;;;;;5033569;28;20045;-76
2022/06/18 04:20:24;;;;;;;13.63;9.93;;;18.80;99.90;;;;;;5033010;28;20054;-76
2022/06/18 04:22:50;;;;;;;12.63;10.00;;;18.90;99.90;;;;;;5017086;28;20073;-77
2022/06/18 04:25:16;;;;;;;14.57;9.32;;;18.90;99.90;;;;;;5033138;28;20424;-76
2022/06/18 04:27:42;;;;;;;13.40;9.98;;;19.00;99.90;;;;;;5034640;28;20037;-77
2022/06/18 04:30:08;;;;;;;16.17;10.63;;;19.00;99.90;;;;;;5033182;28;20140;-76
2022/06/18 04:32:36;;;;;;;16.92;10.00;;;19.00;99.90;;;;;;5033537;28;20396;-76
2022/06/18 04:35:03;;;;;;;17.38;9.50;;;19.00;99.90;;;;;;5033059;28;20041;-76
2022/06/18 04:37:29;;;;;;;15.45;9.55;;;19.10;99.90;;;;;;5033166;28;20062;-76
2022/06/18 04:39:54;;;;;;;17.90;9.55;;;19.10;99.90;;;;;;5032814;28;20061;-76
2022/06/18 04:42:20;;;;;;;18.00;9.77;;;19.20;99.90;;;;;;5033082;28;20489;-78
2022/06/18 04:44:46;;;;;;;21.00;9.60;;;19.20;99.90;;;;;;5033021;28;20044;-76
2022/06/18 04:47:11;;;;;;;20.63;10.20;;;19.30;99.90;;;;;;5033229;28;20038;-74
2022/06/18 04:49:37;;;;;;;16.92;9.90;;;19.30;99.90;;;;;;5032745;28;20555;-76
2022/06/18 04:52:03;;;;;;;19.58;10.18;;;19.40;99.90;;;;;;5032864;28;20125;-78
2022/06/18 04:54:28;;;;;;;13.68;9.93;;;19.60;99.90;;;;;;5032716;28;20477;-78
2022/06/18 04:56:54;;;;;;;22.95;9.93;;;19.60;99.90;;;;;;5034111;28;20053;-75
2022/06/18 04:59:20;;;;;;;17.75;9.50;;;19.70;99.90;;;;;;5016195;28;20408;-75
2022/06/18 05:01:57;;;;;;;15.68;10.75;;;19.80;99.90;;;;;;5033651;28;20049;-75
2022/06/18 05:04:22;;;;;;;20.67;10.13;;;19.90;99.90;;;;;;5032768;28;20045;-76
2022/06/18 05:06:48;;;;;;;17.00;9.57;;;20.10;99.90;;;;;;5032617;28;20117;-75
2022/06/18 05:09:13;;;;;;;20.52;9.88;;;20.30;99.90;;;;;;5032421;28;20119;-76
2022/06/18 05:11:39;;;;;;;18.75;10.48;;;20.50;99.90;;;;;;5032214;28;20041;-78
2022/06/18 05:14:04;;;;;;;17.67;9.50;;;20.70;99.90;;;;;;5015989;28;20119;-76
2022/06/18 05:16:30;;;;;;;16.58;9.50;;;21.00;99.90;;;;;;5032664;28;20052;-76
2022/06/18 05:18:56;;;;;;;16.60;9.52;;;21.20;99.90;;;;;;5032518;28;20095;-75
2022/06/18 05:21:21;;;;;;;24.75;10.20;;;21.50;99.90;;;;;;5015340;28;20037;-77
2022/06/18 05:23:47;;;;;;;14.18;9.65;;;21.80;99.90;;;;;;5032062;28;20052;-76
2022/06/18 05:26:14;;;;;;;20.13;10.45;;;22.10;99.90;;;;;;5032361;28;20046;-76
2022/06/18 05:28:40;;;;;;;20.67;9.52;;;22.30;99.90;;;;;;5032032;28;20040;-76
2022/06/18 05:31:05;;;;;;;16.23;10.55;;;22.40;99.90;;;;;;5031779;28;20120;-78
2022/06/18 05:33:31;;;;;;;20.95;10.23;;;22.60;99.90;;;;;;5033638;28;20048;-76
2022/06/18 05:35:57;;;;;;;14.20;9.77;;;22.70;99.90;;;;;;5040757;28;20043;-73
2022/06/18 05:38:24;;;;;;;14.73;9.70;;;22.70;99.90;;;;;;5041281;28;20128;-76
2022/06/18 05:40:49;;;;;;;18.75;9.93;;;22.80;99.90;;;;;;5036728;28;20377;-76
2022/06/18 05:43:15;;;;;;;18.25;9.10;;;23.00;99.90;;;;;;5032960;28;20048;-76
2022/06/18 05:45:41;;;;;;;19.08;9.82;;;23.20;99.90;;;;;;5031698;28;20045;-76
2022/06/18 05:48:09;;;;;;;19.73;10.73;;;23.30;99.90;;;;;;5031968;28;20124;-76
2022/06/18 05:50:34;;;;;;;17.23;10.50;;;23.50;99.90;;;;;;5031684;28;20103;-76
2022/06/18 05:53:00;;;;;;;16.77;9.80;;;23.60;99.90;;;;;;5031604;28;20073;-76
2022/06/18 05:55:26;;;;;;;19.42;9.63;;;23.80;99.90;;;;;;5031882;28;20118;-76
2022/06/18 05:57:54;;;;;;;18.10;10.73;;;23.90;99.90;;;;;;5031621;28;20048;-76
2022/06/18 06:00:32;;;;;;;18.33;10.50;;;24.10;99.90;;;;;;5032388;28;20060;-76
2022/06/18 06:02:58;;;;;;;16.17;10.02;;;24.20;99.90;;;;;;5031884;28;20096;-76
2022/06/18 06:05:24;;;;;;;18.13;10.57;;;24.30;99.90;;;;;;5031321;28;20046;-76
2022/06/18 06:07:50;;;;;;;18.13;10.05;;;24.40;99.90;;;;;;5031701;28;20112;-76
2022/06/18 06:13:19;;;;;;;22.73;9.77;;;24.60;99.90;;;;;;5014916;28;20079;-76
2022/06/18 06:15:45;;;;;;;19.63;9.93;;;24.70;99.90;;;;;;5032362;28;20041;-78
2022/06/18 06:18:13;;;;;;;15.73;9.60;;;24.90;99.90;;;;;;5031152;28;20041;-78
2022/06/18 06:20:41;;;;;;;17.90;9.82;;;25.00;99.90;;;;;;5030843;28;20060;-76
2022/06/18 06:23:08;;;;;;;16.85;9.50;;;25.00;99.90;;;;;;5031300;28;20076;-77
2022/06/18 06:25:35;;;;;;;18.23;9.63;;;25.10;99.90;;;;;;5030968;28;20037;-76
2022/06/18 06:28:01;;;;;;;18.30;9.35;;;25.20;99.90;;;;;;5032396;28;20037;-76
2022/06/18 06:30:27;;;;;;;16.38;8.75;;;25.20;99.90;;;;;;5031144;28;20038;-76
2022/06/18 06:32:53;;;;;;;17.50;9.63;;;25.20;99.90;;;;;;5030403;28;20544;-76
2022/06/18 06:35:19;;;;;;;19.30;10.10;;;25.30;99.90;;;;;;5030755;28;20041;-78
2022/06/18 06:37:45;;;;;;;16.73;9.05;;;25.40;99.90;;;;;;5032414;28;20043;-75
2022/06/18 06:40:13;;;;;;;20.70;8.95;;;25.40;99.90;;;;;;5030595;28;20456;-76
2022/06/18 06:42:45;;;;;;;16.58;9.18;;;25.50;99.90;;;;;;5030764;28;20128;-77
2022/06/18 06:45:13;;;;;;;17.60;8.70;;;25.60;99.90;;;;;;5030755;28;20092;-76
2022/06/18 06:47:39;;;;;;;17.45;9.80;;;25.60;99.90;;;;;;5030534;28;20052;-76
2022/06/18 06:50:05;;;;;;;13.48;9.40;;;25.70;99.90;;;;;;5013956;28;20188;-76
2022/06/18 06:52:31;;;;;;;18.13;10.18;;;25.80;99.90;;;;;;5030654;28;20099;-79
2022/06/18 06:57:44;;;;;;;21.13;9.20;;;26.10;99.90;;;;;;5031128;28;20041;-79
2022/06/18 07:00:11;;;;;;;18.55;8.90;;;26.20;99.90;;;;;;5030893;28;20485;-80
2022/06/18 07:02:37;;;;;;;17.42;7.43;;;26.30;99.90;;;;;;5032362;28;20049;-80
2022/06/18 07:05:03;;;;;;;16.63;8.57;;;26.50;99.90;;;;;;5030673;28;20511;-80
2022/06/18 07:07:30;;;;;;;15.30;8.18;;;26.60;99.90;;;;;;5030892;28;20052;-80
2022/06/18 07:09:56;;;;;;;14.73;7.57;;;26.70;99.90;;;;;;5032043;28;20045;-79
2022/06/18 07:12:21;;;;;;;21.92;7.72;;;26.70;99.90;;;;;;5030934;28;20049;-79
2022/06/18 07:14:47;;;;;;;16.85;7.28;;;26.70;99.90;;;;;;5032172;28;20043;-80
2022/06/18 07:17:17;;;;;;;17.73;7.57;;;26.70;99.90;;;;;;5030624;28;20201;-79
2022/06/18 07:19:43;;;;;;;13.68;7.07;;;26.80;99.90;;;;;;5030473;28;20041;-79
2022/06/18 07:22:13;;;;;;;16.15;7.72;;;26.90;99.90;;;;;;5014204;28;20484;-80
2022/06/18 07:24:40;;;;;;;15.98;7.40;;;27.00;99.90;;;;;;5030205;28;20041;-79
2022/06/18 07:27:06;;;;;;;12.32;7.97;;;27.20;99.90;;;;;;5030296;28;20049;-79
2022/06/18 07:29:32;;;;;;;14.05;6.22;;;27.30;99.90;;;;;;5030264;28;20152;-79
2022/06/18 07:32:06;;;;;;;16.42;6.07;;;27.20;99.80;;;;;;5013912;28;20096;-79
2022/06/18 07:34:32;;;;;;;14.65;6.28;;;27.40;98.30;;;;;;5030406;28;20076;-79
2022/06/18 07:36:57;;;;;;;12.68;5.40;;;27.40;98.90;;;;;;5030346;28;20425;-80
2022/06/18 07:39:23;;;;;;;9.65;5.10;;;27.40;98.10;;;;;;5030325;28;20100;-79
2022/06/18 07:41:55;;;;;;;11.55;5.65;;;27.50;97.70;;;;;;5013488;28;20056;-77
2022/06/18 07:44:22;;;;;;;10.60;5.95;;;27.80;96.60;;;;;;5032676;28;20037;-77
2022/06/18 07:46:48;;;;;;;8.43;4.78;;;27.90;96.20;;;;;;5033871;28;20389;-77
2022/06/18 07:49:15;;;;;;;11.68;4.05;;;28.00;95.30;;;;;;5017512;28;20080;-78
2022/06/18 07:51:41;;;;;;;8.65;3.85;;;28.10;94.60;;;;;;5017226;28;20080;-77
2022/06/18 07:54:09;;;;;;;13.30;4.03;;;28.20;94.60;;;;;;5033894;28;20041;-77
2022/06/18 07:56:34;;;;;;;8.30;4.57;;;28.10;93.70;;;;;;5033752;28;20516;-78
2022/06/18 07:59:00;;;;;;;7.25;4.30;;;28.20;94.00;;;;;;5017575;28;20045;-78
2022/06/18 08:01:27;;;;;;;8.88;4.13;;;28.10;93.30;;;;;;5033438;28;20120;-76
2022/06/18 08:03:52;;;;;;;11.48;4.68;;;28.20;93.10;;;;;;5017179;28;20492;-76
2022/06/18 08:06:18;;;;;;;8.60;4.60;;;28.30;93.30;;;;;;5034912;28;20172;-77
2022/06/18 08:08:43;;;;;;;12.70;4.60;;;28.50;93.40;;;;;;5033589;28;20037;-76
2022/06/18 08:11:15;;;;;;;9.48;4.68;;;28.60;92.70;;;;;;5033357;28;20096;-74
2022/06/18 08:13:41;;;;;;;6.82;3.75;;;28.70;92.00;;;;;;5033510;28;20515;-76
2022/06/18 08:16:08;;;;;;;10.30;4.22;;;28.60;92.20;;;;;;5033277;28;20052;-77
2022/06/18 08:18:34;;;;;;;12.98;4.00;;;28.70;92.10;;;;;;5017155;28;20045;-76
2022/06/18 08:21:15;;;;;;;11.07;4.55;;;28.60;91.80;;;;;;5033043;28;20048;-75
2022/06/18 08:23:40;;;;;;;;;;;28.70;90.50;;;;;;5033810;28;20045;-77
2022/06/18 08:26:07;;;;;;;9.25;3.95;;;28.60;90.10;;;;;;5033309;28;20324;-75
2022/06/18 08:28:35;;;;;;;8.00;3.63;;;28.50;91.40;;;;;;5033194;28;20041;-76
2022/06/18 08:31:03;;;;;;;15.88;4.78;;;28.50;91.50;;;;;;5032928;28;20060;-76
2022/06/18 08:33:29;;;;;;;9.55;4.03;;;28.50;90.70;;;;;;5033498;28;20488;-75
2022/06/18 08:35:57;;;;;;;6.82;3.33;;;28.50;90.90;;;;;;5033236;28;20451;-75
2022/06/18 08:38:23;;;;;;;10.48;3.58;;;28.50;90.40;;;;;;5033531;28;20092;-75
2022/06/18 08:41:08;;;;;;;7.13;3.60;;;28.60;90.40;;;;;;5033085;28;20472;-76
2022/06/18 08:43:58;;;;;;;5.88;3.67;;;28.70;88.70;;;;;;5032935;28;20041;-77
2022/06/18 08:47:26;;;;;;;8.27;3.83;;;28.70;87.80;;;;;;5033187;28;20056;-77
2022/06/18 08:50:25;;;;;;;6.00;3.28;;;28.80;88.80;;;;;;4975740;28;20058;-76
2022/06/18 08:52:51;;;;;;;10.18;3.38;;;28.80;89.40;;;;;;4956929;28;20480;-75
2022/06/18 08:55:33;;;;;;;7.45;3.17;;;28.80;90.60;;;;;;5021426;28;20092;-75
2022/06/18 08:58:16;;;;;;;9.07;3.63;;;28.90;89.80;;;;;;5033158;28;20425;-76
2022/06/18 09:00:57;;;;;;;11.57;3.88;;;28.90;88.60;;;;;;5032296;28;20543;-76
2022/06/18 09:03:51;;;;;;;9.38;3.10;;;28.90;90.50;;;;;;5032608;28;20042;-76
2022/06/18 09:06:35;;;;;;;8.68;3.08;;;29.00;88.70;;;;;;5032813;28;20038;-76
2022/06/18 09:09:38;;;;;;;9.77;3.90;;;29.00;90.10;;;;;;5032688;28;20033;-77
2022/06/18 09:12:26;;;;;;;7.30;3.40;;;28.90;87.70;;;;;;5032475;28;20056;-77
2022/06/18 09:15:18;;;;;;;11.27;4.38;;;28.80;90.30;;;;;;5032195;28;20049;-77
2022/06/18 09:18:13;;;;;;;7.90;3.63;;;28.80;90.70;;;;;;5015874;28;20049;-76
2022/06/18 09:20:51;;;;;;;6.88;2.92;;;28.90;90.20;;;;;;5023931;28;20053;-76
2022/06/18 09:23:30;;;;;;;6.80;2.85;;;29.00;90.20;;;;;;5032246;28;20088;-77
2022/06/18 09:25:58;;;;;;;7.07;3.17;;;29.10;90.10;;;;;;5032087;28;20448;-75
2022/06/18 09:28:34;;;;;;;6.93;3.63;;;29.30;90.10;;;;;;5032033;28;20051;-76
2022/06/18 09:31:29;;;;;;;6.30;3.53;;;29.40;89.80;;;;;;5031841;28;20068;-77
2022/06/18 09:34:00;;;;;;;8.23;3.28;;;29.50;89.50;;;;;;5031887;28;20144;-78
2022/06/18 09:36:36;;;;;;;8.10;3.17;;;29.60;90.00;;;;;;5032190;28;20052;-77
2022/06/18 09:39:08;;;;;;;7.50;3.10;;;29.70;87.90;;;;;;5015814;28;20045;-76
2022/06/18 09:41:54;;;;;;;9.10;3.58;;;29.60;89.00;;;;;;5031987;28;20045;-76
2022/06/18 09:44:53;;;;;;;5.32;2.58;;;29.60;88.90;;;;;;5018531;28;20741;-76
2022/06/18 09:47:28;;;;;;;7.47;2.65;;;29.80;88.00;;;;;;5029713;28;20034;-76
2022/06/18 09:49:54;;;;;;;7.57;2.30;;;29.90;87.90;;;;;;4998643;28;20033;-76
2022/06/18 09:52:35;;;;;;;8.20;2.28;;;29.90;86.90;;;;;;5022303;28;20059;-75
2022/06/18 09:55:09;;;;;;;8.02;2.50;;;29.90;86.80;;;;;;5021357;28;20049;-76
2022/06/18 09:57:40;;;;;;;6.90;2.20;;;30.00;87.00;;;;;;5012710;28;20038;-77
2022/06/18 10:00:10;;;;;;;6.32;2.25;;;30.00;87.10;;;;;;5031742;28;20045;-77
2022/06/18 10:02:41;;;;;;;4.22;2.13;;;30.00;86.30;;;;;;5042221;28;20052;-76
2022/06/18 10:07:55;;;;;;;6.90;2.03;;;29.90;84.20;;;;;;5013643;28;19953;-76
2022/06/18 10:10:25;;;;;;;5.97;2.20;;;29.90;86.20;;;;;;4979026;28;20046;-76
2022/06/18 10:12:57;;;;;;;5.38;2.40;;;30.10;85.00;;;;;;5021755;28;20051;-76
2022/06/18 10:15:24;;;;;;;5.65;2.50;;;30.00;83.80;;;;;;5004450;28;20421;-75
2022/06/18 10:18:10;;;;;;;5.20;2.28;;;29.80;84.70;;;;;;4994971;28;20085;-76
2022/06/18 10:20:39;;;;;;;5.78;2.13;;;29.80;84.70;;;;;;5010680;28;20064;-76
2022/06/18 10:23:13;;;;;;;6.20;2.33;;;29.70;84.00;;;;;;5002116;28;20128;-76
2022/06/18 10:25:45;;;;;;;5.15;1.98;;;29.80;82.30;;;;;;5039674;28;20582;-76
2022/06/18 10:28:38;;;;;;;6.72;2.42;;;29.80;84.90;;;;;;5022087;28;20091;-75
2022/06/18 10:31:13;;;;;;;11.05;2.20;;;29.80;84.40;;;;;;4994586;28;20192;-76
2022/06/18 10:34:03;;;;;;;7.22;2.20;;;29.90;85.60;;;;;;5012375;28;20045;-76
2022/06/18 10:36:52;;;;;;;6.28;2.33;;;29.90;84.80;;;;;;5021167;28;20092;-75
2022/06/18 10:39:43;;;;;;;8.02;2.70;;;29.80;86.90;;;;;;5018240;28;20050;-76
2022/06/18 10:42:37;;;;;;;9.75;3.40;;;29.90;86.30;;;;;;5027105;28;20575;-75
2022/06/18 10:45:20;;;;;;;7.57;3.25;;;30.00;86.80;;;;;;5023803;28;20037;-76
2022/06/18 10:47:48;;;;;;;9.02;2.90;;;30.10;85.80;;;;;;5017187;28;20124;-75
2022/06/18 10:50:17;;;;;;;7.13;3.08;;;30.10;86.50;;;;;;5019574;28;20052;-75
2022/06/18 10:52:44;;;;;;;6.72;2.45;;;30.00;86.50;;;;;;5017457;28;20505;-77
2022/06/18 10:55:17;;;;;;;8.70;2.38;;;30.00;87.20;;;;;;5010727;28;20060;-76
2022/06/18 10:57:44;;;;;;;4.22;2.05;;;30.00;85.80;;;;;;5029539;28;20053;-76
2022/06/18 11:00:25;;;;;;;13.27;3.03;;;30.10;85.50;;;;;;5019093;28;20045;-76
2022/06/18 11:03:00;;;;;;;3.25;2.20;;;29.90;85.30;;;;;;5013558;28;20042;-77
2022/06/18 11:05:35;;;;;;;11.98;2.80;;;30.00;84.10;;;;;;5005879;28;20046;-77
2022/06/18 11:08:04;;;;;;;5.88;2.58;;;30.10;83.60;;;;;;5020163;28;20034;-75
2022/06/18 11:10:43;;;;;;;5.85;2.40;;;30.10;85.10;;;;;;5030180;28;20040;-76
2022/06/18 11:13:19;;;;;;;5.85;2.30;;;30.10;86.00;;;;;;5013723;28;20041;-76
2022/06/18 11:15:45;;;;;;;7.97;2.45;;;30.30;85.80;;;;;;5029403;28;20033;-75
2022/06/18 11:18:21;;;;;;;6.70;2.10;;;30.30;83.60;;;;;;5026686;28;20107;-77
2022/06/18 11:21:05;;;;;;;6.80;2.10;;;30.30;82.70;;;;;;5021493;28;20068;-75
2022/06/18 11:23:36;;;;;;;4.03;1.80;;;30.30;84.50;;;;;;5026967;28;20139;-75
2022/06/18 11:26:05;;;;;;;5.45;1.85;;;30.30;82.20;;;;;;4999091;28;20651;-76
2022/06/18 11:28:39;;;;;;;6.93;1.80;;;30.20;82.90;;;;;;5018372;28;20080;-76
2022/06/18 11:31:07;;;;;;;5.43;1.70;;;30.30;80.30;;;;;;4998746;28;20408;-76
2022/06/18 11:33:50;;;;;;;3.53;1.92;;;30.30;81.90;;;;;;5021848;28;20053;-75
2022/06/18 11:36:19;;;;;;;4.72;1.83;;;30.30;80.60;;;;;;5009469;28;20067;-76
2022/06/18 11:38:57;;;;;;;8.27;2.05;;;30.30;80.80;;;;;;5019489;28;20045;-75
2022/06/18 11:41:40;;;;;;;8.20;2.20;;;30.30;82.70;;;;;;5020384;28;20052;-75
2022/06/18 11:44:19;;;;;;;3.67;1.83;;;30.40;81.50;;;;;;5002444;28;20689;-76
2022/06/18 11:46:53;;;;;;;3.95;1.80;;;30.40;81.40;;;;;;5001875;28;20382;-76
2022/06/18 11:49:29;;;;;;;3.20;1.65;;;30.30;80.20;;;;;;5017797;28;20047;-76
2022/06/18 11:52:16;;;;;;;4.00;2.13;;;30.30;80.80;;;;;;5021834;28;20129;-75
2022/06/18 11:55:03;;;;;;;5.63;1.63;;;30.20;79.80;;;;;;5020694;28;20053;-76
2022/06/18 11:57:33;;;;;;;3.83;1.63;;;30.10;80.30;;;;;;5027325;28;20042;-76
2022/06/18 12:00:18;;;;;;;4.78;1.60;;;30.00;78.40;;;;;;5021058;28;20167;-76
2022/06/18 12:03:06;;;;;;;3.70;1.77;;;30.00;80.30;;;;;;5021544;28;20073;-76
2022/06/18 12:05:47;;;;;;;4.35;1.60;;;30.00;79.00;;;;;;5020682;28;20080;-76
2022/06/18 12:08:18;;;;;;;2.53;1.83;;;30.10;80.40;;;;;;5024140;28;20115;-76
2022/06/18 12:10:48;;;;;;;3.20;1.60;;;30.10;79.40;;;;;;5024295;28;20045;-76
2022/06/18 12:13:37;;;;;;;5.90;2.10;;;30.30;79.20;;;;;;5002427;28;20065;-75
2022/06/18 12:16:26;;;;;;;8.40;2.10;;;30.30;81.70;;;;;;5020761;28;20041;-75
2022/06/18 12:19:15;;;;;;;5.88;1.80;;;30.30;80.80;;;;;;5017329;28;20064;-75
2022/06/18 12:21:47;;;;;;;3.03;1.85;;;30.40;81.20;;;;;;5021459;28;20041;-76
2022/06/18 12:24:14;;;;;;;8.07;2.25;;;30.50;82.10;;;;;;5018390;28;20481;-75
2022/06/18 12:27:08;;;;;;;5.00;2.30;;;30.60;79.90;;;;;;5014575;28;20121;-76
2022/06/18 12:29:36;;;;;;;18.42;2.85;;;30.60;79.50;;;;;;5018719;28;20042;-75
2022/06/18 12:32:15;;;;;;;5.63;1.85;;;30.60;79.00;;;;;;4995121;28;20050;-75
2022/06/18 12:35:05;;;;;;;6.13;1.50;;;30.80;78.80;;;;;;5015068;28;20370;-75
2022/06/18 12:37:53;;;;;;;5.68;1.60;;;30.90;78.40;;;;;;5015983;28;20072;-75
2022/06/18 12:40:23;;;;;;;4.97;1.98;;;30.70;79.70;;;;;;5021954;28;20049;-75
2022/06/18 12:43:17;;;;;;;4.07;1.42;;;30.40;79.90;;;;;;5022434;28;20120;-74
2022/06/18 12:46:02;;;;;;;3.53;1.60;;;30.30;79.60;;;;;;5010731;28;20128;-76
2022/06/18 12:48:51;;;;;;;2.67;1.60;;;30.10;78.60;;;;;;5028131;28;20072;-75
2022/06/18 12:51:31;;;;;;;7.78;2.53;;;29.80;79.50;;;;;;5023523;28;20053;-75
2022/06/18 12:54:11;;;;;;;6.87;2.27;;;29.60;80.00;;;;;;5021953;28;20054;-76
2022/06/18 12:56:47;;;;;;;6.20;1.95;;;29.50;79.40;;;;;;5025754;28;20143;-75
2022/06/18 12:59:33;;;;;;;2.90;2.10;;;29.40;81.10;;;;;;5030134;28;20088;-75
2022/06/18 13:02:20;;;;;;;8.27;1.73;;;29.40;81.00;;;;;;5024184;28;20400;-75
2022/06/18 13:05:04;;;;;;;7.80;2.25;;;29.20;83.40;;;;;;5032648;28;20056;-75
2022/06/18 13:08:21;;;;;;;4.63;1.88;;;29.30;82.60;;;;;;5016140;28;20037;-75
2022/06/18 13:10:52;;;;;;;4.53;1.90;;;29.20;82.90;;;;;;5032419;28;20401;-75
2022/06/18 13:13:27;;;;;;;7.22;2.08;;;29.20;82.00;;;;;;5015815;28;20048;-75
2022/06/18 13:16:20;;;;;;;3.83;2.25;;;29.10;83.00;;;;;;5032490;28;20041;-75
2022/06/18 13:18:53;;;;;;;5.40;1.83;;;29.10;85.70;;;;;;5032711;28;20048;-76
2022/06/18 13:21:19;;;;;;;7.63;2.10;;;28.90;84.90;;;;;;5015799;28;20045;-77